createdAt,value
2023-01-28T00:03:51.694Z,101360.00
2023-01-28T00:08:56.193Z,101353.80
2023-01-28T00:14:00.158Z,101346.00
2023-01-28T00:19:03.839Z,101348.20
2023-01-28T00:24:09.849Z,101347.60
2023-01-28T00:29:13.218Z,101342.80
2023-01-28T00:34:16.535Z,101350.20
2023-01-28T00:39:19.635Z,101337.40
2023-01-28T00:44:23.255Z,101344.60
2023-01-28T00:49:26.366Z,101348.00
2023-01-28T00:54:29.774Z,101361.00
2023-01-28T00:59:32.987Z,101356.60
2023-01-28T01:04:36.091Z,101346.00
2023-01-28T01:09:39.216Z,101345.80
2023-01-28T01:14:42.408Z,101344.80
2023-01-28T01:19:45.829Z,101338.60
2023-01-28T01:24:49.240Z,101338.00
2023-01-28T01:29:52.439Z,101340.60
2023-01-28T01:34:55.645Z,101342.40
2023-01-28T01:39:58.963Z,101350.60
2023-01-28T01:45:20.416Z,101349.40
2023-01-28T01:50:45.321Z,101344.20
2023-01-28T01:55:53.435Z,101333.20
2023-01-28T02:00:57.550Z,101319.00
2023-01-28T02:06:00.879Z,101316.80
2023-01-28T02:11:08.710Z,101319.60
2023-01-28T02:16:13.525Z,101312.20
2023-01-28T02:21:57.652Z,101316.40
2023-01-28T02:27:25.798Z,101323.80
2023-01-28T02:33:00.359Z,101327.00
2023-01-28T02:38:15.332Z,101317.00
2023-01-28T02:43:18.436Z,101311.60
2023-01-28T02:48:23.896Z,101316.80
2023-01-28T02:53:41.542Z,101314.20
2023-01-28T02:58:57.760Z,101317.60
2023-01-28T03:04:20.937Z,101309.60
2023-01-28T03:09:27.411Z,101313.40
2023-01-28T03:14:52.647Z,101311.20
2023-01-28T03:20:14.489Z,101312.40
2023-01-28T03:25:42.274Z,101307.40
2023-01-28T03:31:19.094Z,101309.60
2023-01-28T03:36:41.430Z,101303.00
2023-01-28T03:42:07.577Z,101306.40
2023-01-28T03:47:12.088Z,101310.40
2023-01-28T03:52:21.718Z,101310.00
2023-01-28T03:57:28.129Z,101308.20
2023-01-28T04:02:32.330Z,101310.40
2023-01-28T04:07:35.502Z,101313.00
2023-01-28T04:12:38.708Z,101314.60
2023-01-28T04:17:48.331Z,101306.20
2023-01-28T04:22:51.916Z,101297.60
2023-01-28T04:27:54.995Z,101300.40
2023-01-28T04:32:58.114Z,101305.20
2023-01-28T04:38:01.520Z,101303.40
2023-01-28T04:43:04.617Z,101308.80
2023-01-28T04:48:07.846Z,101308.60
2023-01-28T04:53:11.847Z,101321.00
2023-01-28T04:58:21.982Z,101317.60
2023-01-28T05:03:28.617Z,101323.00
2023-01-28T05:08:31.822Z,101326.80
2023-01-28T05:13:35.026Z,101333.20
2023-01-28T05:18:38.234Z,101332.80
2023-01-28T05:23:41.340Z,101337.40
2023-01-28T05:28:44.581Z,101338.00
2023-01-28T05:33:47.760Z,101338.40
2023-01-28T05:38:50.965Z,101347.20
2023-01-28T05:43:57.054Z,101342.20
2023-01-28T05:49:00.149Z,101346.60
2023-01-28T05:54:03.355Z,101357.60
2023-01-28T05:59:07.391Z,101346.60
2023-01-28T06:04:10.701Z,101352.20
2023-01-28T06:09:13.905Z,101354.20
2023-01-28T06:14:17.227Z,101365.20
2023-01-28T06:19:20.426Z,101369.80
2023-01-28T06:24:23.592Z,101370.60
2023-01-28T06:29:26.740Z,101376.60
2023-01-28T06:34:29.864Z,101367.80
2023-01-28T06:39:35.567Z,101362.60
2023-01-28T06:44:38.627Z,101367.20
2023-01-28T06:49:41.723Z,101377.00
2023-01-28T06:54:44.840Z,101373.60
2023-01-28T06:59:47.954Z,101371.80
2023-01-28T07:04:51.157Z,101376.80
2023-01-28T07:09:54.360Z,101373.60
2023-01-28T07:14:57.667Z,101379.40
2023-01-28T07:20:00.872Z,101383.00
2023-01-28T07:25:04.800Z,101382.60
2023-01-28T07:30:09.332Z,101387.40
2023-01-28T07:35:13.815Z,101390.80
2023-01-28T07:40:17.427Z,101404.80
2023-01-28T07:45:20.707Z,101402.40
2023-01-28T07:50:25.165Z,101402.60
2023-01-28T07:55:31.211Z,101398.60
2023-01-28T08:00:37.498Z,101395.80
2023-01-28T08:05:50.341Z,101400.20
2023-01-28T08:10:54.268Z,101393.40
2023-01-28T08:15:57.811Z,101392.40
2023-01-28T08:21:00.961Z,101394.00
2023-01-28T08:26:04.099Z,101405.40
2023-01-28T08:31:07.351Z,101392.80
2023-01-28T08:36:11.044Z,101391.60
2023-01-28T08:41:14.134Z,101400.60
2023-01-28T08:46:17.482Z,101396.00
2023-01-28T08:51:20.851Z,101400.40
2023-01-28T08:56:24.059Z,101399.40
2023-01-28T09:01:29.752Z,101388.60
2023-01-28T09:06:33.652Z,101381.60
2023-01-28T09:11:36.783Z,101378.00
2023-01-28T09:16:39.983Z,101383.20
2023-01-28T09:21:43.083Z,101376.40
2023-01-28T09:26:48.635Z,101375.60
2023-01-28T09:31:51.826Z,101372.20
2023-01-28T09:36:55.368Z,101368.40
2023-01-28T09:42:31.695Z,101385.20
2023-01-28T09:47:46.528Z,101370.40
2023-01-28T09:52:53.501Z,101367.40
2023-01-28T09:57:57.579Z,101363.40
2023-01-28T10:03:31.599Z,101368.40
2023-01-28T10:09:18.721Z,101365.20
2023-01-28T10:14:53.073Z,101368.00
2023-01-28T10:20:21.053Z,101370.20
2023-01-28T10:25:32.095Z,101378.00
2023-01-28T10:30:48.246Z,101369.20
2023-01-28T10:35:51.683Z,101379.80
2023-01-28T10:41:01.853Z,101369.80
2023-01-28T10:46:22.565Z,101369.80
2023-01-28T10:51:39.847Z,101378.60
2023-01-28T10:56:44.456Z,101368.00
2023-01-28T11:01:55.443Z,101364.40
2023-01-28T11:07:17.480Z,101351.20
2023-01-28T11:12:28.183Z,101352.20
2023-01-28T11:17:36.142Z,101342.80
2023-01-28T11:22:44.888Z,101354.20
2023-01-28T11:27:51.755Z,101346.80
2023-01-28T11:33:00.953Z,101350.00
2023-01-28T11:38:18.922Z,101348.40
2023-01-28T11:43:26.036Z,101334.20
2023-01-28T11:49:03.049Z,101341.80
2023-01-28T11:54:40.231Z,101329.80
2023-01-28T11:59:56.856Z,101326.20
2023-01-28T12:05:19.546Z,101330.20
2023-01-28T12:11:13.897Z,101327.20
2023-01-28T12:16:45.307Z,101318.20
2023-01-28T12:22:16.499Z,101317.40
2023-01-28T12:27:48.144Z,101312.60
2023-01-28T12:33:18.278Z,101306.40
2023-01-28T12:38:38.079Z,101294.00
2023-01-28T12:43:56.433Z,101289.60
2023-01-28T12:49:25.775Z,101292.00
2023-01-28T12:55:35.741Z,101294.80
2023-01-28T13:00:45.574Z,101284.20
2023-01-28T13:06:09.318Z,101289.40
2023-01-28T13:11:19.498Z,101286.40
2023-01-28T13:16:35.921Z,101283.00
2023-01-28T13:21:49.085Z,101287.20
2023-01-28T13:26:56.984Z,101278.80
2023-01-28T13:32:04.457Z,101282.80
2023-01-28T13:37:44.828Z,101269.20
2023-01-28T13:43:02.481Z,101279.60
2023-01-28T13:48:36.617Z,101275.60
2023-01-28T13:54:00.191Z,101289.20
2023-01-28T13:59:36.523Z,101299.20
2023-01-28T14:05:08.561Z,101295.20
2023-01-28T14:10:45.589Z,101286.40
2023-01-28T14:16:03.680Z,101295.60
2023-01-28T14:21:21.114Z,101292.00
2023-01-28T14:26:43.625Z,101295.60
2023-01-28T14:31:47.896Z,101292.80
2023-01-28T14:36:56.464Z,101289.40
2023-01-28T14:42:03.401Z,101289.00
2023-01-28T14:47:58.311Z,101287.20
2023-01-28T14:53:22.914Z,101300.00
2023-01-28T14:58:33.387Z,101284.80
2023-01-28T15:03:46.540Z,101285.40
2023-01-28T15:08:50.768Z,101278.60
2023-01-28T15:13:59.191Z,101257.40
2023-01-28T15:19:02.921Z,101254.60
2023-01-28T15:24:07.053Z,101265.80
2023-01-28T15:29:35.568Z,101253.60
2023-01-28T15:34:46.642Z,101242.80
2023-01-28T15:40:02.200Z,101240.40
2023-01-28T15:45:16.682Z,101259.20
2023-01-28T15:50:26.369Z,101246.40
2023-01-28T15:55:37.882Z,101253.00
2023-01-28T16:00:41.072Z,101239.00
2023-01-28T16:06:04.087Z,101247.40
2023-01-28T16:11:09.693Z,101258.00
2023-01-28T16:16:14.275Z,101259.00
2023-01-28T16:21:43.484Z,101258.80
2023-01-28T16:27:01.747Z,101272.00
2023-01-28T16:32:05.130Z,101276.00
2023-01-28T16:37:10.689Z,101284.40
2023-01-28T16:42:13.903Z,101272.00
2023-01-28T16:47:17.158Z,101276.00
2023-01-28T16:52:20.554Z,101281.80
2023-01-28T16:57:24.213Z,101280.60
2023-01-28T17:02:27.706Z,101292.20
2023-01-28T17:07:30.901Z,101298.60
2023-01-28T17:12:33.999Z,101298.20
2023-01-28T17:17:37.116Z,101280.80
2023-01-28T17:22:40.326Z,101293.40
2023-01-28T17:27:43.870Z,101278.80
2023-01-28T17:32:47.043Z,101275.80
2023-01-28T17:37:55.248Z,101260.40
2023-01-28T17:42:58.477Z,101255.20
2023-01-28T17:48:01.706Z,101257.40
2023-01-28T17:53:04.999Z,101254.00
2023-01-28T17:58:08.111Z,101246.20
2023-01-28T18:03:16.007Z,101241.20
2023-01-28T18:08:19.134Z,101244.00
2023-01-28T18:13:22.954Z,101249.00
2023-01-28T18:18:26.060Z,101257.40
2023-01-28T18:23:30.428Z,101257.40
2023-01-28T18:28:33.604Z,101255.60
2023-01-28T18:33:36.724Z,101264.00
2023-01-28T18:38:39.929Z,101260.80
2023-01-28T18:43:43.431Z,101262.20
2023-01-28T18:48:47.577Z,101259.80
2023-01-28T18:53:50.685Z,101252.00
2023-01-28T18:59:02.790Z,101260.40
2023-01-28T19:04:06.506Z,101256.00
2023-01-28T19:09:14.222Z,101239.40
2023-01-28T19:14:18.173Z,101244.80
2023-01-28T19:19:21.865Z,101242.20
2023-01-28T19:24:25.035Z,101251.60
2023-01-28T19:29:29.722Z,101254.80
2023-01-28T19:34:32.929Z,101245.00
2023-01-28T19:39:36.550Z,101256.60
2023-01-28T19:44:39.960Z,101250.60
2023-01-28T19:49:43.084Z,101238.80
2023-01-28T19:54:48.425Z,101223.80
2023-01-28T19:59:51.528Z,101228.00
2023-01-28T20:05:00.968Z,101225.40
2023-01-28T20:10:05.428Z,101234.20
2023-01-28T20:15:09.557Z,101235.00
2023-01-28T20:20:13.070Z,101227.00
2023-01-28T20:25:17.315Z,101242.80
2023-01-28T20:30:20.757Z,101222.40
2023-01-28T20:35:23.925Z,101231.20
2023-01-28T20:40:27.153Z,101226.60
2023-01-28T20:45:32.604Z,101228.80
2023-01-28T20:50:36.420Z,101217.60
2023-01-28T20:55:39.729Z,101216.20
2023-01-28T21:00:46.934Z,101212.40
2023-01-28T21:05:50.348Z,101196.20
2023-01-28T21:10:53.450Z,101187.80
2023-01-28T21:15:58.361Z,101190.60
2023-01-28T21:21:08.078Z,101197.60
2023-01-28T21:26:15.538Z,101194.20
2023-01-28T21:31:22.651Z,101187.00
2023-01-28T21:36:26.921Z,101197.20
2023-01-28T21:41:32.306Z,101211.40
2023-01-28T21:46:35.555Z,101190.40
2023-01-28T21:51:47.706Z,101192.00
2023-01-28T21:56:51.992Z,101194.60
2023-01-28T22:02:10.251Z,101190.60
2023-01-28T22:07:19.501Z,101186.00
2023-01-28T22:12:23.057Z,101190.60
2023-01-28T22:17:26.476Z,101197.80
2023-01-28T22:22:29.675Z,101194.40
2023-01-28T22:27:32.791Z,101179.20
2023-01-28T22:32:35.989Z,101181.80
2023-01-28T22:37:39.505Z,101176.20
2023-01-28T22:42:42.617Z,101172.80
2023-01-28T22:47:46.338Z,101167.80
2023-01-28T22:52:49.645Z,101162.40
2023-01-28T22:57:52.959Z,101150.20
2023-01-28T23:02:56.174Z,101145.60
2023-01-28T23:08:10.549Z,101134.00
2023-01-28T23:13:15.354Z,101117.40
2023-01-28T23:18:40.830Z,101114.00
2023-01-28T23:24:02.953Z,101110.40
2023-01-28T23:29:06.379Z,101081.40
2023-01-28T23:34:09.707Z,101074.20
2023-01-28T23:39:13.003Z,101076.40
2023-01-28T23:44:18.144Z,101084.80
2023-01-28T23:49:21.674Z,101085.60
2023-01-28T23:54:24.776Z,101073.40
2023-01-28T23:59:28.395Z,101068.00
